createdAt,value
2022-08-17T00:02:26.590Z,22.74
2022-08-17T00:04:55.147Z,22.68
2022-08-17T00:07:22.721Z,22.84
2022-08-17T00:09:50.370Z,22.75
2022-08-17T00:12:43.395Z,22.70
2022-08-17T00:15:06.179Z,22.66
2022-08-17T00:17:37.584Z,22.61
2022-08-17T00:20:05.544Z,22.68
2022-08-17T00:22:36.421Z,22.66
2022-08-17T00:25:08.295Z,22.59
2022-08-17T00:27:35.824Z,22.55
2022-08-17T00:30:04.867Z,22.60
2022-08-17T00:33:14.543Z,22.48
2022-08-17T00:35:32.752Z,22.34
2022-08-17T00:37:59.963Z,22.31
2022-08-17T00:40:27.359Z,22.26
2022-08-17T00:43:17.153Z,22.28
2022-08-17T00:45:45.015Z,22.21
2022-08-17T00:48:29.531Z,22.19
2022-08-17T00:51:09.645Z,22.25
2022-08-17T00:53:39.375Z,22.25
2022-08-17T00:56:09.398Z,22.22
2022-08-17T00:58:37.382Z,22.24
2022-08-17T01:01:06.261Z,22.29
2022-08-17T01:03:33.966Z,22.25
2022-08-17T01:06:02.291Z,22.33
2022-08-17T01:08:31.052Z,22.28
2022-08-17T01:11:02.205Z,22.17
2022-08-17T01:13:39.738Z,22.13
2022-08-17T01:16:16.656Z,22.08
2022-08-17T01:18:45.441Z,22.04
2022-08-17T01:21:36.928Z,22.01
2022-08-17T01:24:04.388Z,21.92
2022-08-17T01:26:33.304Z,21.81
2022-08-17T01:29:02.309Z,21.68
2022-08-17T01:31:30.755Z,21.62
2022-08-17T01:34:00.635Z,21.57
2022-08-17T01:36:29.148Z,21.61
2022-08-17T01:38:56.514Z,21.60
2022-08-17T01:41:24.879Z,21.72
2022-08-17T01:43:56.861Z,21.79
2022-08-17T01:46:28.159Z,21.78
2022-08-17T01:48:57.497Z,21.83
2022-08-17T01:51:33.258Z,21.83
2022-08-17T01:54:06.621Z,21.78
2022-08-17T01:56:35.322Z,21.69
2022-08-17T01:59:02.960Z,21.61
2022-08-17T02:01:31.738Z,21.53
2022-08-17T02:04:01.417Z,21.43
2022-08-17T02:06:44.918Z,21.41
2022-08-17T02:09:16.999Z,21.35
2022-08-17T02:11:44.461Z,21.30
2022-08-17T02:14:12.796Z,21.25
2022-08-17T02:16:41.015Z,21.27
2022-08-17T02:19:13.258Z,21.22
2022-08-17T02:21:41.963Z,21.17
2022-08-17T02:24:11.953Z,21.13
2022-08-17T02:26:39.213Z,21.14
2022-08-17T02:29:07.230Z,21.12
2022-08-17T02:31:35.577Z,21.15
2022-08-17T02:34:04.758Z,21.21
2022-08-17T02:36:33.967Z,21.26
2022-08-17T02:39:06.740Z,21.31
2022-08-17T02:41:34.167Z,21.27
2022-08-17T02:44:01.406Z,21.22
2022-08-17T02:46:29.076Z,21.18
2022-08-17T02:48:56.428Z,21.01
2022-08-17T02:51:23.649Z,20.88
2022-08-17T02:53:50.921Z,20.89
2022-08-17T02:56:18.143Z,20.91
2022-08-17T02:58:46.240Z,20.88
2022-08-17T03:01:13.900Z,20.87
2022-08-17T03:03:41.528Z,20.84
2022-08-17T03:06:09.202Z,20.84
2022-08-17T03:08:37.520Z,20.93
2022-08-17T03:11:04.963Z,20.91
2022-08-17T03:13:32.171Z,20.99
2022-08-17T03:15:59.381Z,21.03
2022-08-17T03:18:27.927Z,21.02
2022-08-17T03:20:59.835Z,20.99
2022-08-17T03:23:27.908Z,21.04
2022-08-17T03:25:57.480Z,20.98
2022-08-17T03:28:25.517Z,20.89
2022-08-17T03:30:53.054Z,20.89
2022-08-17T03:33:20.817Z,20.80
2022-08-17T03:35:48.054Z,20.83
2022-08-17T03:38:17.072Z,20.80
2022-08-17T03:40:57.810Z,20.72
2022-08-17T03:43:28.433Z,20.54
2022-08-17T03:46:27.343Z,20.49
2022-08-17T03:49:19.564Z,20.40
2022-08-17T03:52:05.615Z,20.36
2022-08-17T03:54:51.563Z,20.30
2022-08-17T03:57:19.226Z,20.13
2022-08-17T03:59:46.758Z,20.08
2022-08-17T04:02:32.128Z,20.13
2022-08-17T04:04:59.801Z,20.11
2022-08-17T04:07:29.050Z,20.05
2022-08-17T04:09:57.879Z,19.99
2022-08-17T04:12:25.704Z,19.86
2022-08-17T04:14:55.018Z,19.78
2022-08-17T04:17:24.614Z,19.85
2022-08-17T04:19:52.028Z,19.91
2022-08-17T04:22:31.401Z,19.97
2022-08-17T04:25:06.016Z,20.01
2022-08-17T04:27:33.516Z,20.12
2022-08-17T04:30:01.286Z,20.28
2022-08-17T04:33:00.786Z,20.39
2022-08-17T04:35:19.542Z,20.51
2022-08-17T04:37:47.361Z,20.55
2022-08-17T04:40:33.062Z,20.58
2022-08-17T04:43:06.212Z,20.61
2022-08-17T04:45:34.081Z,20.67
2022-08-17T04:48:02.332Z,20.83
2022-08-17T04:50:29.522Z,20.94
2022-08-17T04:52:57.105Z,21.02
2022-08-17T04:55:24.475Z,21.07
2022-08-17T04:57:51.750Z,21.12
2022-08-17T05:00:19.131Z,21.16
2022-08-17T05:02:49.819Z,21.23
2022-08-17T05:05:23.387Z,21.40
2022-08-17T05:07:55.457Z,21.52
2022-08-17T05:10:24.199Z,21.61
2022-08-17T05:13:06.303Z,21.69
2022-08-17T05:15:36.071Z,21.76
2022-08-17T05:18:03.957Z,21.83
2022-08-17T05:20:31.751Z,21.97
2022-08-17T05:23:01.718Z,22.10
2022-08-17T05:25:32.809Z,22.20
2022-08-17T05:28:04.277Z,22.35
2022-08-17T05:30:34.792Z,22.45
2022-08-17T05:33:11.233Z,22.62
2022-08-17T05:35:40.297Z,22.71
2022-08-17T05:38:08.258Z,22.79
2022-08-17T05:40:36.385Z,22.93
2022-08-17T05:43:20.519Z,23.08
2022-08-17T05:46:11.027Z,23.22
2022-08-17T05:48:40.568Z,23.38
2022-08-17T05:51:31.971Z,23.43
2022-08-17T05:54:30.035Z,23.40
2022-08-17T05:57:36.280Z,23.52
2022-08-17T06:00:19.282Z,23.75
2022-08-17T06:03:06.718Z,23.89
2022-08-17T06:05:55.352Z,24.17
2022-08-17T06:08:32.862Z,24.31
2022-08-17T06:11:23.086Z,24.47
2022-08-17T06:14:22.080Z,24.68
2022-08-17T06:16:58.856Z,24.94
2022-08-17T06:19:42.604Z,25.22
2022-08-17T06:22:13.621Z,25.55
2022-08-17T06:24:50.069Z,25.88
2022-08-17T06:27:40.894Z,26.24
2022-08-17T06:30:24.672Z,26.58
2022-08-17T06:32:53.275Z,26.90
2022-08-17T06:35:31.935Z,27.28
2022-08-17T06:38:51.328Z,27.76
2022-08-17T06:41:32.199Z,28.01
2022-08-17T06:44:11.964Z,28.34
2022-08-17T06:47:15.868Z,28.74
2022-08-17T06:50:01.121Z,29.21
2022-08-17T06:52:45.974Z,29.64
2022-08-17T06:55:23.972Z,30.09
2022-08-17T06:57:57.448Z,30.59
2022-08-17T07:00:28.601Z,30.90
2022-08-17T07:03:10.623Z,31.55
2022-08-17T07:05:59.452Z,32.35
2022-08-17T07:08:35.014Z,33.12
2022-08-17T07:11:07.944Z,33.85
2022-08-17T07:14:01.202Z,34.32
2022-08-17T07:16:36.349Z,34.75
2022-08-17T07:19:06.004Z,34.84
2022-08-17T07:22:08.681Z,35.16
2022-08-17T07:24:58.300Z,35.70
2022-08-17T07:27:45.693Z,36.07
2022-08-17T07:30:19.404Z,36.51
2022-08-17T07:32:59.373Z,36.61
2022-08-17T07:35:37.841Z,36.63
2022-08-17T07:38:24.707Z,36.31
2022-08-17T07:41:03.812Z,35.75
2022-08-17T07:43:40.010Z,35.50
2022-08-17T07:46:35.973Z,35.34
2022-08-17T07:49:08.590Z,35.35
2022-08-17T07:51:40.711Z,35.60
2022-08-17T07:54:22.975Z,35.70
2022-08-17T07:56:55.908Z,36.31
2022-08-17T07:59:34.907Z,36.41
2022-08-17T08:02:06.688Z,35.98
2022-08-17T08:07:35.693Z,36.09
2022-08-17T08:10:11.096Z,36.00
2022-08-17T08:12:46.599Z,35.05
2022-08-17T08:15:22.214Z,34.91
2022-08-17T08:17:57.497Z,34.33
2022-08-17T08:20:53.279Z,33.45
2022-08-17T08:23:41.655Z,33.47
2022-08-17T08:26:18.757Z,33.43
2022-08-17T08:28:49.337Z,33.51
2022-08-17T08:31:19.166Z,33.56
2022-08-17T08:34:58.787Z,33.70
2022-08-17T08:37:42.471Z,33.81
2022-08-17T08:40:19.834Z,33.95
2022-08-17T08:43:05.948Z,33.93
2022-08-17T08:45:38.132Z,33.52
2022-08-17T08:48:52.828Z,33.45
2022-08-17T08:51:47.185Z,33.36
2022-08-17T08:54:31.349Z,33.37
2022-08-17T09:00:15.497Z,33.65
2022-08-17T09:03:10.939Z,33.62
2022-08-17T09:05:57.445Z,33.65
2022-08-17T09:08:58.991Z,33.21
2022-08-17T09:12:01.099Z,33.09
2022-08-17T09:14:46.790Z,33.35
2022-08-17T09:21:04.052Z,32.78
2022-08-17T09:23:37.656Z,32.90
2022-08-17T09:26:30.864Z,32.74
2022-08-17T09:29:02.165Z,32.62
2022-08-17T09:31:46.311Z,32.80
2022-08-17T09:34:32.019Z,32.85
2022-08-17T09:37:11.398Z,32.85
2022-08-17T09:40:03.137Z,32.66
2022-08-17T09:42:40.557Z,32.84
2022-08-17T09:45:27.040Z,33.01
2022-08-17T09:48:03.077Z,33.23
2022-08-17T09:51:04.850Z,33.53
2022-08-17T09:53:37.272Z,33.78
2022-08-17T09:56:27.243Z,33.91
2022-08-17T09:59:23.595Z,34.15
2022-08-17T10:02:21.028Z,34.28
2022-08-17T10:04:58.677Z,34.38
2022-08-17T10:07:48.041Z,34.41
2022-08-17T10:10:24.836Z,34.66
2022-08-17T10:12:55.993Z,34.35
2022-08-17T10:15:42.597Z,33.51
2022-08-17T10:18:31.964Z,33.00
2022-08-17T10:21:29.979Z,33.02
2022-08-17T10:24:29.601Z,32.63
2022-08-17T10:26:58.737Z,32.77
2022-08-17T10:29:47.446Z,32.98
2022-08-17T10:32:33.021Z,33.08
2022-08-17T10:35:18.868Z,32.94
2022-08-17T10:38:12.585Z,32.56
2022-08-17T10:41:01.788Z,32.87
2022-08-17T10:44:37.414Z,33.19
2022-08-17T10:47:01.421Z,33.38
2022-08-17T10:49:32.584Z,33.39
2022-08-17T10:52:05.933Z,33.46
2022-08-17T10:54:57.886Z,33.38
2022-08-17T10:57:33.795Z,33.50
2022-08-17T11:00:15.169Z,33.62
2022-08-17T11:02:51.463Z,33.45
2022-08-17T11:05:28.886Z,33.60
2022-08-17T11:08:05.273Z,33.81
2022-08-17T11:11:02.029Z,34.03
2022-08-17T11:14:07.621Z,34.07
2022-08-17T11:16:50.439Z,34.13
2022-08-17T11:19:46.051Z,34.16
2022-08-17T11:22:33.674Z,34.18
2022-08-17T11:25:20.594Z,34.14
2022-08-17T11:27:53.844Z,33.89
2022-08-17T11:30:41.497Z,33.91
2022-08-17T11:33:29.947Z,33.95
2022-08-17T11:36:16.694Z,33.80
2022-08-17T11:39:01.131Z,33.85
2022-08-17T11:41:48.897Z,33.76
2022-08-17T11:44:37.764Z,33.75
2022-08-17T11:48:23.817Z,33.63
2022-08-17T11:51:16.340Z,33.04
2022-08-17T11:53:43.456Z,33.02
2022-08-17T11:56:34.525Z,32.93
2022-08-17T11:59:02.287Z,32.83
2022-08-17T12:01:49.346Z,32.83
2022-08-17T12:04:34.835Z,32.92
2022-08-17T12:07:10.929Z,32.61
2022-08-17T12:09:44.927Z,32.59
2022-08-17T12:12:18.360Z,32.69
2022-08-17T12:15:11.872Z,32.84
2022-08-17T12:17:42.626Z,32.52
2022-08-17T12:20:23.084Z,32.48
2022-08-17T12:23:17.316Z,32.62
2022-08-17T12:25:59.723Z,32.28
2022-08-17T12:28:30.241Z,32.39
2022-08-17T12:31:01.460Z,32.15
2022-08-17T12:33:29.072Z,32.35
2022-08-17T12:36:03.203Z,32.72
2022-08-17T12:38:34.686Z,32.73
2022-08-17T12:41:23.549Z,32.90
2022-08-17T12:44:16.471Z,32.93
2022-08-17T12:47:22.973Z,33.10
2022-08-17T12:49:54.235Z,33.25
2022-08-17T12:52:27.277Z,33.39
2022-08-17T12:55:01.781Z,33.47
2022-08-17T12:57:55.366Z,33.51
2022-08-17T13:00:34.987Z,33.56
2022-08-17T13:03:19.107Z,33.47
2022-08-17T13:06:09.374Z,33.53
2022-08-17T13:08:45.810Z,33.56
2022-08-17T13:11:18.671Z,33.19
2022-08-17T13:13:51.129Z,33.36
2022-08-17T13:16:30.415Z,33.59
2022-08-17T13:19:15.582Z,33.69
2022-08-17T13:21:48.961Z,33.80
2022-08-17T13:24:20.312Z,33.86
2022-08-17T13:26:59.014Z,33.83
2022-08-17T13:29:33.184Z,33.78
2022-08-17T13:32:13.063Z,33.77
2022-08-17T13:35:03.727Z,33.66
2022-08-17T13:37:36.930Z,33.39
2022-08-17T13:40:10.461Z,33.34
2022-08-17T13:42:50.425Z,33.29
2022-08-17T13:45:43.837Z,33.47
2022-08-17T13:48:23.999Z,33.59
2022-08-17T13:50:56.972Z,33.65
2022-08-17T13:53:40.436Z,33.66
2022-08-17T13:56:38.057Z,33.65
2022-08-17T13:59:11.352Z,33.69
2022-08-17T14:01:52.843Z,33.61
2022-08-17T14:04:24.274Z,33.35
2022-08-17T14:06:54.504Z,33.45
2022-08-17T14:09:43.737Z,33.51
2022-08-17T14:12:12.978Z,33.55
2022-08-17T14:14:42.561Z,33.57
2022-08-17T14:17:10.683Z,33.63
2022-08-17T14:19:38.215Z,33.66
2022-08-17T14:22:08.851Z,33.67
2022-08-17T14:24:44.657Z,33.67
2022-08-17T14:27:15.734Z,33.66
2022-08-17T14:29:43.693Z,33.62
2022-08-17T14:32:20.523Z,33.56
2022-08-17T14:34:49.572Z,33.43
2022-08-17T14:37:20.825Z,33.49
2022-08-17T14:39:48.346Z,33.35
2022-08-17T14:42:17.522Z,33.14
2022-08-17T14:44:45.508Z,33.07
2022-08-17T14:47:15.861Z,33.05
2022-08-17T14:49:43.677Z,32.96
2022-08-17T14:52:18.284Z,33.07
2022-08-17T14:54:46.000Z,32.97
2022-08-17T14:57:25.933Z,33.00
2022-08-17T15:00:01.249Z,33.14
2022-08-17T15:02:29.786Z,33.28
2022-08-17T15:05:03.547Z,33.40
2022-08-17T15:07:31.489Z,33.46
2022-08-17T15:10:01.360Z,33.40
2022-08-17T15:12:33.215Z,33.43
2022-08-17T15:15:05.426Z,33.51
2022-08-17T15:17:44.594Z,33.43
2022-08-17T15:20:22.844Z,33.35
2022-08-17T15:22:50.524Z,33.30
2022-08-17T15:25:18.982Z,33.20
2022-08-17T15:27:46.316Z,33.05
2022-08-17T15:30:13.734Z,33.08
2022-08-17T15:32:50.614Z,32.89
2022-08-17T15:35:26.955Z,32.96
2022-08-17T15:37:56.679Z,32.96
2022-08-17T15:40:25.031Z,33.04
2022-08-17T15:42:52.828Z,33.04
2022-08-17T15:45:24.464Z,32.78
2022-08-17T15:47:53.521Z,32.75
2022-08-17T15:50:21.074Z,32.84
2022-08-17T15:52:55.619Z,32.86
2022-08-17T15:55:24.256Z,32.78
2022-08-17T15:57:52.150Z,32.63
2022-08-17T16:00:19.908Z,32.59
2022-08-17T16:03:45.712Z,32.53
2022-08-17T16:05:35.791Z,32.41
2022-08-17T16:08:04.507Z,32.28
2022-08-17T16:10:35.212Z,32.39
2022-08-17T16:13:03.713Z,32.41
2022-08-17T16:15:31.743Z,32.37
2022-08-17T16:17:59.135Z,32.21
2022-08-17T16:20:26.689Z,32.31
2022-08-17T16:22:54.480Z,32.24
2022-08-17T16:25:50.423Z,32.24
2022-08-17T16:28:17.235Z,32.23
2022-08-17T16:30:44.620Z,32.13
2022-08-17T16:33:11.899Z,32.11
2022-08-17T16:35:39.201Z,32.27
2022-08-17T16:38:07.099Z,32.40
2022-08-17T16:40:36.161Z,32.42
2022-08-17T16:43:06.929Z,32.30
2022-08-17T16:45:39.863Z,32.21
2022-08-17T16:48:08.256Z,32.24
2022-08-17T16:50:35.923Z,32.24
2022-08-17T16:53:10.385Z,32.21
2022-08-17T16:55:37.777Z,32.13
2022-08-17T16:58:05.955Z,32.21
2022-08-17T17:00:33.844Z,32.23
2022-08-17T17:03:20.675Z,32.01
2022-08-17T17:05:59.455Z,31.95
2022-08-17T17:08:31.471Z,31.90
2022-08-17T17:11:03.802Z,31.84
2022-08-17T17:13:47.234Z,31.76
2022-08-17T17:16:45.797Z,31.63
2022-08-17T17:19:34.499Z,31.60
2022-08-17T17:22:14.012Z,31.56
2022-08-17T17:24:47.093Z,31.52
2022-08-17T17:27:42.684Z,31.47
2022-08-17T17:30:15.564Z,31.50
2022-08-17T17:32:51.157Z,31.42
2022-08-17T17:35:44.755Z,31.44
2022-08-17T17:38:21.460Z,31.40
2022-08-17T17:40:51.632Z,31.45
2022-08-17T17:43:38.312Z,31.44
2022-08-17T17:46:27.575Z,31.42
2022-08-17T17:48:56.996Z,31.40
2022-08-17T17:52:08.587Z,31.39
2022-08-17T17:54:44.980Z,31.35
2022-08-17T17:57:25.788Z,31.34
2022-08-17T18:00:03.409Z,31.30
2022-08-17T18:02:52.089Z,31.25
2022-08-17T18:05:34.812Z,31.23
2022-08-17T18:08:21.044Z,31.20
2022-08-17T18:11:24.564Z,31.14
2022-08-17T18:14:14.222Z,31.02
2022-08-17T18:16:43.073Z,30.92
2022-08-17T18:19:21.231Z,30.85
2022-08-17T18:22:02.561Z,30.61
2022-08-17T18:24:35.973Z,30.53
2022-08-17T18:27:26.705Z,30.47
2022-08-17T18:29:56.473Z,30.37
2022-08-17T18:32:28.683Z,30.35
2022-08-17T18:35:09.253Z,30.31
2022-08-17T18:37:51.584Z,30.16
2022-08-17T18:40:23.330Z,30.13
2022-08-17T18:43:21.163Z,30.11
2022-08-17T18:45:49.178Z,30.03
2022-08-17T18:48:22.965Z,29.98
2022-08-17T18:50:53.465Z,29.96
2022-08-17T18:53:26.967Z,29.90
2022-08-17T18:56:18.814Z,29.86
2022-08-17T18:58:53.572Z,29.77
2022-08-17T19:01:22.177Z,29.70
2022-08-17T19:04:15.635Z,29.61
2022-08-17T19:06:43.499Z,29.55
2022-08-17T19:09:29.963Z,29.48
2022-08-17T19:11:57.655Z,29.40
2022-08-17T19:14:27.241Z,29.34
2022-08-17T19:16:59.309Z,29.30
2022-08-17T19:19:42.043Z,29.23
2022-08-17T19:22:17.002Z,29.19
2022-08-17T19:25:03.726Z,29.13
2022-08-17T19:27:46.253Z,29.07
2022-08-17T19:30:15.005Z,29.01
2022-08-17T19:32:42.247Z,28.98
2022-08-17T19:35:15.122Z,28.92
2022-08-17T19:37:49.396Z,28.89
2022-08-17T19:40:52.370Z,28.92
2022-08-17T19:43:44.149Z,28.85
2022-08-17T19:46:29.525Z,28.81
2022-08-17T19:49:14.575Z,28.74
2022-08-17T19:51:47.189Z,28.69
2022-08-17T19:54:40.512Z,28.62
2022-08-17T19:57:11.502Z,28.50
2022-08-17T19:59:58.789Z,28.48
2022-08-17T20:02:42.334Z,28.39
2022-08-17T20:05:21.462Z,28.34
2022-08-17T20:07:54.690Z,28.31
2022-08-17T20:10:29.165Z,28.28
2022-08-17T20:13:01.589Z,28.24
2022-08-17T20:15:30.957Z,28.23
2022-08-17T20:18:00.407Z,28.18
2022-08-17T20:20:50.684Z,28.13
2022-08-17T20:23:31.689Z,28.07
2022-08-17T20:26:19.283Z,28.04
2022-08-17T20:29:09.651Z,28.02
2022-08-17T20:31:50.542Z,27.97
2022-08-17T20:34:30.971Z,27.96
2022-08-17T20:37:08.708Z,27.90
2022-08-17T20:39:46.310Z,27.89
2022-08-17T20:42:22.680Z,27.86
2022-08-17T20:44:57.859Z,27.84
2022-08-17T20:48:07.291Z,27.80
2022-08-17T20:50:43.519Z,27.75
2022-08-17T20:53:15.162Z,27.73
2022-08-17T20:55:51.609Z,27.73
2022-08-17T20:58:31.187Z,27.68
2022-08-17T21:00:58.817Z,27.61
2022-08-17T21:03:49.092Z,27.57
2022-08-17T21:06:19.022Z,27.53
2022-08-17T21:08:58.871Z,27.46
2022-08-17T21:11:56.715Z,27.36
2022-08-17T21:14:34.308Z,27.35
2022-08-17T21:17:17.625Z,27.39
2022-08-17T21:20:14.751Z,27.40
2022-08-17T21:22:51.269Z,27.37
2022-08-17T21:25:21.558Z,27.38
2022-08-17T21:28:07.074Z,27.36
2022-08-17T21:30:34.188Z,27.36
2022-08-17T21:33:20.491Z,27.43
2022-08-17T21:35:58.702Z,27.38
2022-08-17T21:38:37.643Z,27.35
2022-08-17T21:41:04.815Z,27.30
2022-08-17T21:43:35.256Z,27.28
2022-08-17T21:46:08.891Z,27.29
2022-08-17T21:48:45.722Z,27.29
2022-08-17T21:51:25.376Z,27.24
2022-08-17T21:53:58.850Z,27.27
2022-08-17T21:56:32.932Z,27.23
2022-08-17T21:59:03.684Z,27.24
2022-08-17T22:01:35.928Z,27.23
2022-08-17T22:04:20.795Z,27.25
2022-08-17T22:06:54.287Z,27.23
2022-08-17T22:09:31.962Z,27.18
2022-08-17T22:12:05.242Z,27.20
2022-08-17T22:14:52.247Z,27.23
2022-08-17T22:17:20.922Z,27.04
2022-08-17T22:19:59.239Z,27.01
2022-08-17T22:22:35.236Z,26.95
2022-08-17T22:25:06.885Z,26.91
2022-08-17T22:27:56.371Z,26.95
2022-08-17T22:30:33.560Z,26.92
2022-08-17T22:33:20.614Z,26.86
2022-08-17T22:35:48.116Z,26.87
2022-08-17T22:38:21.434Z,26.91
2022-08-17T22:40:51.318Z,26.79
2022-08-17T22:43:24.188Z,26.78
2022-08-17T22:45:56.178Z,26.62
2022-08-17T22:48:27.437Z,26.63
2022-08-17T22:51:14.047Z,26.60
2022-08-17T22:54:08.570Z,26.60
2022-08-17T22:56:54.392Z,26.65
2022-08-17T22:59:43.697Z,26.63
2022-08-17T23:02:16.023Z,26.61
2022-08-17T23:04:51.322Z,26.65
2022-08-17T23:07:19.153Z,26.65
2022-08-17T23:09:47.836Z,26.61
2022-08-17T23:12:18.801Z,26.66
2022-08-17T23:14:47.036Z,26.65
2022-08-17T23:17:14.376Z,26.64
2022-08-17T23:19:41.645Z,26.31
2022-08-17T23:22:10.021Z,26.37
2022-08-17T23:24:46.358Z,26.38
2022-08-17T23:27:13.651Z,26.41
2022-08-17T23:29:42.111Z,26.31
2022-08-17T23:32:14.606Z,26.11
2022-08-17T23:34:43.515Z,26.17
2022-08-17T23:37:11.157Z,26.01
2022-08-17T23:39:39.369Z,25.96
2022-08-17T23:42:08.962Z,25.98
2022-08-17T23:44:37.905Z,25.95
2022-08-17T23:47:07.234Z,25.98
2022-08-17T23:49:36.163Z,25.92
2022-08-17T23:52:07.430Z,25.76
2022-08-17T23:54:46.411Z,25.83
2022-08-17T23:57:18.069Z,25.88
2022-08-17T23:59:45.596Z,25.99
